createdAt,value
2018-07-07T00:00:25.109Z,5.97
2018-07-07T00:02:27.662Z,5.97
2018-07-07T00:04:30.283Z,6.60
2018-07-07T00:06:33.257Z,6.30
2018-07-07T00:08:35.818Z,6.20
2018-07-07T00:10:38.369Z,6.23
2018-07-07T00:12:40.957Z,6.33
2018-07-07T00:14:43.504Z,5.60
2018-07-07T00:16:46.090Z,7.03
2018-07-07T00:18:49.509Z,6.03
2018-07-07T00:20:52.058Z,7.20
2018-07-07T00:22:54.630Z,6.70
2018-07-07T00:24:57.210Z,7.13
2018-07-07T00:26:59.793Z,7.47
2018-07-07T00:29:02.344Z,6.70
2018-07-07T00:31:04.906Z,6.83
2018-07-07T00:33:07.521Z,6.73
2018-07-07T00:35:10.072Z,6.80
2018-07-07T00:37:12.764Z,6.73
2018-07-07T00:39:15.345Z,7.07
2018-07-07T00:41:18.015Z,7.17
2018-07-07T00:43:20.583Z,7.33
2018-07-07T00:45:23.133Z,7.17
2018-07-07T00:47:25.693Z,7.17
2018-07-07T00:49:29.089Z,6.70
2018-07-07T00:51:31.643Z,7.10
2018-07-07T00:53:34.953Z,7.17
2018-07-07T00:55:37.657Z,7.37
2018-07-07T00:57:40.233Z,7.17
2018-07-07T00:59:42.778Z,7.40
2018-07-07T01:01:45.389Z,6.17
2018-07-07T01:03:47.942Z,7.10
2018-07-07T01:05:51.036Z,7.33
2018-07-07T01:07:53.601Z,7.67
2018-07-07T01:09:56.178Z,7.80
2018-07-07T01:11:58.802Z,7.97
2018-07-07T01:14:02.981Z,6.87
2018-07-07T01:16:05.553Z,6.80
2018-07-07T01:18:08.125Z,6.73
2018-07-07T01:20:10.738Z,7.50
2018-07-07T01:22:14.060Z,7.07
2018-07-07T01:24:16.606Z,7.07
2018-07-07T01:26:20.054Z,7.13
2018-07-07T01:28:22.614Z,7.50
2018-07-07T01:30:25.202Z,7.27
2018-07-07T01:32:27.889Z,6.87
2018-07-07T01:34:31.996Z,6.60
2018-07-07T01:36:34.542Z,7.07
2018-07-07T01:38:37.146Z,6.50
2018-07-07T01:40:39.690Z,6.40
2018-07-07T01:42:42.258Z,7.37
2018-07-07T01:44:44.849Z,6.97
2018-07-07T01:46:47.410Z,6.57
2018-07-07T01:48:50.136Z,6.13
2018-07-07T01:50:52.738Z,6.33
2018-07-07T01:52:55.256Z,6.50
2018-07-07T01:54:57.817Z,6.50
2018-07-07T01:57:00.494Z,7.37
2018-07-07T01:59:03.045Z,7.37
2018-07-07T02:01:05.631Z,6.47
2018-07-07T02:03:08.254Z,7.03
2018-07-07T02:05:10.794Z,6.40
2018-07-07T02:07:13.346Z,7.30
2018-07-07T02:09:16.042Z,6.67
2018-07-07T02:11:18.609Z,6.97
2018-07-07T02:13:21.171Z,6.17
2018-07-07T02:15:24.034Z,6.30
2018-07-07T02:17:26.582Z,7.67
2018-07-07T02:19:30.039Z,6.20
2018-07-07T02:21:32.706Z,6.97
2018-07-07T02:23:35.249Z,6.90
2018-07-07T02:25:37.886Z,6.67
2018-07-07T02:27:40.445Z,6.60
2018-07-07T02:29:42.993Z,6.13
2018-07-07T02:31:45.545Z,6.47
2018-07-07T02:33:48.130Z,6.17
2018-07-07T02:35:50.727Z,6.07
2018-07-07T02:37:53.339Z,6.70
2018-07-07T02:39:56.680Z,6.87
2018-07-07T02:41:59.241Z,6.10
2018-07-07T02:44:01.849Z,6.73
2018-07-07T02:46:04.821Z,6.10
2018-07-07T02:48:07.499Z,6.87
2018-07-07T02:50:10.062Z,5.50
2018-07-07T02:52:12.747Z,5.87
2018-07-07T02:54:15.281Z,6.00
2018-07-07T02:56:17.839Z,5.07
2018-07-07T02:58:21.515Z,6.07
2018-07-07T03:00:25.567Z,5.80
2018-07-07T03:02:28.173Z,5.60
2018-07-07T03:04:30.758Z,6.07
2018-07-07T03:06:33.309Z,5.83
2018-07-07T03:08:35.874Z,6.17
2018-07-07T03:10:38.457Z,6.00
2018-07-07T03:12:41.062Z,5.80
2018-07-07T03:14:43.613Z,6.07
2018-07-07T03:16:46.197Z,5.57
2018-07-07T03:18:48.744Z,6.00
2018-07-07T03:20:51.390Z,5.63
2018-07-07T03:22:54.861Z,6.20
2018-07-07T03:24:57.516Z,5.70
2018-07-07T03:27:00.085Z,5.53
2018-07-07T03:29:02.654Z,6.60
2018-07-07T03:31:05.205Z,7.20
2018-07-07T03:33:07.803Z,6.27
2018-07-07T03:35:11.569Z,5.70
2018-07-07T03:37:14.926Z,6.30
2018-07-07T03:39:17.461Z,5.30
2018-07-07T03:41:20.134Z,5.63
2018-07-07T03:43:22.705Z,6.00
2018-07-07T03:45:25.257Z,6.20
2018-07-07T03:47:28.063Z,5.37
2018-07-07T03:49:30.615Z,5.77
2018-07-07T03:51:33.179Z,6.03
2018-07-07T03:53:35.753Z,5.77
2018-07-07T03:55:38.375Z,5.60
2018-07-07T03:57:40.936Z,6.07
2018-07-07T03:59:43.618Z,5.80
2018-07-07T04:01:46.177Z,5.70
2018-07-07T04:03:48.792Z,5.20
2018-07-07T04:05:51.358Z,6.60
2018-07-07T04:07:53.914Z,6.03
2018-07-07T04:09:56.470Z,5.97
2018-07-07T04:11:59.068Z,6.40
2018-07-07T04:14:01.621Z,6.37
2018-07-07T04:16:04.199Z,5.77
2018-07-07T04:18:07.008Z,5.57
2018-07-07T04:20:09.575Z,5.73
2018-07-07T04:22:12.189Z,6.60
2018-07-07T04:24:14.819Z,5.83
2018-07-07T04:26:17.369Z,5.77
2018-07-07T04:28:19.926Z,6.60
2018-07-07T04:30:22.497Z,6.47
2018-07-07T04:32:25.061Z,6.20
2018-07-07T04:34:27.766Z,6.17
2018-07-07T04:36:30.526Z,6.37
2018-07-07T04:38:33.152Z,7.00
2018-07-07T04:40:37.190Z,6.97
2018-07-07T04:42:40.699Z,6.57
2018-07-07T04:44:43.253Z,7.30
2018-07-07T04:46:45.819Z,6.80
2018-07-07T04:48:49.257Z,7.33
2018-07-07T04:50:51.821Z,7.23
2018-07-07T04:52:54.383Z,6.70
2018-07-07T04:54:57.403Z,6.53
2018-07-07T04:56:59.942Z,5.77
2018-07-07T04:59:02.501Z,6.50
2018-07-07T05:01:05.106Z,6.70
2018-07-07T05:03:07.683Z,6.70
2018-07-07T05:05:10.470Z,6.83
2018-07-07T05:07:13.853Z,7.67
2018-07-07T05:09:16.401Z,8.10
2018-07-07T05:11:18.968Z,6.77
2018-07-07T05:13:21.570Z,6.23
2018-07-07T05:15:24.151Z,6.10
2018-07-07T05:17:26.669Z,6.43
2018-07-07T05:19:30.015Z,5.83
2018-07-07T05:21:32.580Z,6.80
2018-07-07T05:23:35.173Z,5.83
2018-07-07T05:25:37.727Z,5.93
2018-07-07T05:27:40.282Z,5.90
2018-07-07T05:29:42.845Z,6.70
2018-07-07T05:31:45.564Z,6.73
2018-07-07T05:33:48.113Z,6.53
2018-07-07T05:35:50.672Z,5.57
2018-07-07T05:37:53.590Z,6.50
2018-07-07T05:39:56.133Z,5.93
2018-07-07T05:41:58.709Z,6.03
2018-07-07T05:44:01.290Z,5.97
2018-07-07T05:46:03.854Z,5.00
2018-07-07T05:48:06.418Z,5.27
2018-07-07T05:50:09.360Z,4.77
2018-07-07T05:52:13.409Z,4.90
2018-07-07T05:54:15.953Z,4.80
2018-07-07T05:56:19.422Z,5.67
2018-07-07T05:58:21.970Z,4.90
2018-07-07T06:00:24.604Z,5.85
2018-07-07T06:02:28.149Z,5.10
2018-07-07T06:04:30.759Z,5.97
2018-07-07T06:06:33.318Z,5.00
2018-07-07T06:08:35.977Z,5.27
2018-07-07T06:10:38.525Z,4.30
2018-07-07T06:12:41.085Z,5.13
2018-07-07T06:14:43.686Z,4.10
2018-07-07T06:16:46.247Z,4.60
2018-07-07T06:18:48.786Z,4.73
2018-07-07T06:20:52.441Z,4.20
2018-07-07T06:22:54.998Z,5.47
2018-07-07T06:24:57.610Z,4.80
2018-07-07T06:27:01.064Z,5.27
2018-07-07T06:29:03.678Z,3.90
2018-07-07T06:31:06.230Z,4.60
2018-07-07T06:33:08.898Z,4.90
2018-07-07T06:35:11.474Z,4.90
2018-07-07T06:37:14.117Z,4.47
2018-07-07T06:39:16.675Z,4.30
2018-07-07T06:41:19.998Z,4.30
2018-07-07T06:43:22.545Z,4.60
2018-07-07T06:45:25.141Z,3.80
2018-07-07T06:47:27.737Z,4.07
2018-07-07T06:49:31.219Z,4.47
2018-07-07T06:51:34.120Z,4.10
2018-07-07T06:53:36.734Z,4.10
2018-07-07T06:55:39.261Z,4.67
2018-07-07T06:57:41.838Z,4.87
2018-07-07T06:59:44.628Z,4.53
2018-07-07T07:01:48.812Z,5.73
2018-07-07T07:03:51.385Z,4.53
2018-07-07T07:05:53.959Z,4.87
2018-07-07T07:07:56.546Z,4.60
2018-07-07T07:09:59.157Z,5.20
2018-07-07T07:12:01.754Z,4.83
2018-07-07T07:14:05.061Z,6.43
2018-07-07T07:16:07.812Z,5.07
2018-07-07T07:18:11.158Z,5.30
2018-07-07T07:20:13.703Z,5.37
2018-07-07T07:22:16.273Z,5.13
2018-07-07T07:24:18.818Z,4.93
2018-07-07T07:26:22.221Z,5.30
2018-07-07T07:28:24.838Z,5.57
2018-07-07T07:30:27.445Z,4.70
2018-07-07T07:32:29.965Z,4.80
2018-07-07T07:34:32.583Z,4.47
2018-07-07T07:36:35.135Z,4.80
2018-07-07T07:38:38.485Z,5.03
2018-07-07T07:40:41.099Z,4.90
2018-07-07T07:42:43.657Z,4.53
2018-07-07T07:44:46.218Z,4.60
2018-07-07T07:46:48.798Z,3.77
2018-07-07T07:48:51.350Z,4.50
2018-07-07T07:50:53.966Z,4.93
2018-07-07T07:52:56.550Z,4.47
2018-07-07T07:54:59.097Z,5.00
2018-07-07T07:57:01.651Z,4.70
2018-07-07T07:59:04.330Z,4.90
2018-07-07T08:01:06.779Z,4.53
2018-07-07T08:03:10.108Z,4.23
2018-07-07T08:05:12.897Z,3.80
2018-07-07T08:07:15.482Z,4.90
2018-07-07T08:09:18.049Z,4.33
2018-07-07T08:11:20.722Z,4.70
2018-07-07T08:13:23.277Z,3.63
2018-07-07T08:15:25.842Z,4.07
2018-07-07T08:17:28.535Z,4.00
2018-07-07T08:19:31.082Z,4.30
2018-07-07T08:21:33.693Z,4.60
2018-07-07T08:23:36.261Z,3.30
2018-07-07T08:25:38.806Z,4.07
2018-07-07T08:27:42.190Z,3.30
2018-07-07T08:29:44.789Z,4.00
2018-07-07T08:31:47.382Z,4.20
2018-07-07T08:33:49.934Z,4.00
2018-07-07T08:35:52.620Z,3.17
2018-07-07T08:37:55.165Z,3.20
2018-07-07T08:39:57.717Z,3.33
2018-07-07T08:42:01.483Z,3.23
2018-07-07T08:44:03.916Z,3.00
2018-07-07T08:46:06.499Z,3.97
2018-07-07T08:48:09.200Z,3.40
2018-07-07T08:50:11.804Z,3.10
2018-07-07T08:52:15.129Z,3.50
2018-07-07T08:54:17.710Z,3.40
2018-07-07T08:56:20.248Z,3.90
2018-07-07T08:58:23.568Z,3.30
2018-07-07T09:00:26.143Z,3.80
2018-07-07T09:02:28.713Z,3.13
2018-07-07T09:04:31.318Z,3.37
2018-07-07T09:06:33.999Z,3.40
2018-07-07T09:08:36.569Z,3.30
2018-07-07T09:10:39.177Z,3.90
2018-07-07T09:12:41.827Z,3.20
2018-07-07T09:14:44.370Z,3.00
2018-07-07T09:16:46.997Z,3.47
2018-07-07T09:18:50.656Z,3.20
2018-07-07T09:20:53.129Z,2.93
2018-07-07T09:22:55.684Z,3.40
2018-07-07T09:24:58.251Z,3.53
2018-07-07T09:27:00.795Z,3.43
2018-07-07T09:29:04.158Z,3.63
2018-07-07T09:31:06.917Z,3.40
2018-07-07T09:33:09.510Z,3.30
2018-07-07T09:35:12.715Z,3.50
2018-07-07T09:37:15.296Z,4.30
2018-07-07T09:39:17.834Z,4.07
2018-07-07T09:41:20.389Z,3.70
2018-07-07T09:43:22.970Z,3.93
2018-07-07T10:27:13.871Z,6.23
2018-07-07T10:29:16.436Z,5.20
2018-07-07T10:31:18.989Z,6.20
2018-07-07T10:33:21.556Z,6.50
2018-07-07T10:35:24.198Z,7.57
2018-07-07T10:37:26.787Z,6.10
2018-07-07T10:39:29.446Z,6.70
2018-07-07T10:41:32.101Z,7.20
2018-07-07T10:43:34.664Z,6.37
2018-07-07T10:45:37.290Z,6.67
2018-07-07T10:47:39.800Z,6.50
2018-07-07T10:49:42.346Z,5.60
2018-07-07T10:51:45.663Z,6.80
2018-07-07T10:53:48.229Z,5.40
2018-07-07T10:55:50.773Z,5.27
2018-07-07T10:57:53.385Z,5.70
2018-07-07T10:59:55.989Z,6.43
2018-07-07T11:01:58.635Z,5.47
2018-07-07T11:04:01.199Z,5.00
2018-07-07T11:06:03.751Z,5.10
2018-07-07T11:08:06.377Z,4.80
2018-07-07T11:10:08.936Z,4.90
2018-07-07T11:12:11.560Z,5.03
2018-07-07T11:14:15.617Z,4.80
2018-07-07T11:16:18.189Z,4.43
2018-07-07T11:18:20.740Z,5.30
2018-07-07T11:20:23.329Z,4.30
2018-07-07T11:22:25.876Z,3.90
2018-07-07T11:24:28.502Z,4.90
2018-07-07T11:26:31.045Z,4.30
2018-07-07T11:28:33.633Z,4.70
2018-07-07T11:30:36.172Z,4.67
2018-07-07T11:32:38.724Z,4.97
2018-07-07T11:34:42.048Z,4.00
2018-07-07T11:36:44.914Z,3.80
2018-07-07T11:38:47.212Z,4.10
2018-07-07T11:40:49.885Z,4.70
2018-07-07T11:42:52.470Z,4.87
2018-07-07T11:44:55.014Z,4.00
2018-07-07T11:46:58.265Z,5.07
2018-07-07T11:49:00.806Z,4.83
2018-07-07T11:51:03.374Z,5.23
2018-07-07T11:53:06.057Z,4.00
2018-07-07T11:55:08.629Z,4.53
2018-07-07T11:57:11.199Z,4.80
2018-07-07T11:59:13.772Z,4.83
2018-07-07T12:01:16.325Z,4.17
2018-07-07T12:03:18.941Z,4.50
2018-07-07T12:05:21.485Z,3.80
2018-07-07T12:07:24.029Z,5.50
2018-07-07T12:09:26.588Z,4.23
2018-07-07T12:11:29.277Z,4.70
2018-07-07T12:13:31.845Z,3.97
2018-07-07T12:15:35.133Z,6.17
2018-07-07T12:17:37.688Z,4.30
2018-07-07T12:19:41.024Z,5.37
2018-07-07T12:21:43.561Z,4.33
2018-07-07T12:23:47.003Z,4.17
2018-07-07T12:25:49.544Z,4.60
2018-07-07T12:27:52.093Z,4.40
2018-07-07T12:29:55.478Z,4.60
2018-07-07T12:31:58.013Z,4.20
2018-07-07T12:34:00.685Z,4.00
2018-07-07T12:36:03.365Z,4.07
2018-07-07T12:38:05.936Z,4.47
2018-07-07T12:40:08.505Z,3.90
2018-07-07T12:42:11.102Z,5.10
2018-07-07T12:44:13.698Z,3.97
2018-07-07T12:46:16.224Z,4.30
2018-07-07T12:48:18.785Z,4.47
2018-07-07T12:50:21.349Z,4.20
2018-07-07T12:52:25.580Z,4.60
2018-07-07T12:54:28.172Z,5.23
2018-07-07T12:56:30.745Z,4.40
2018-07-07T12:58:33.347Z,3.90
2018-07-07T13:00:35.882Z,3.70
2018-07-07T13:02:38.465Z,4.90
2018-07-07T13:04:41.134Z,4.20
2018-07-07T13:06:43.700Z,3.50
2018-07-07T13:08:46.269Z,4.10
2018-07-07T13:10:48.856Z,3.97
2018-07-07T13:12:51.421Z,3.47
2018-07-07T13:14:54.006Z,4.62
2018-07-07T13:16:56.910Z,4.43
2018-07-07T13:18:59.545Z,3.77
2018-07-07T13:21:02.094Z,3.80
2018-07-07T13:23:04.639Z,4.10
2018-07-07T13:25:08.013Z,5.03
2018-07-07T13:27:10.561Z,3.90
2018-07-07T13:29:13.129Z,4.80
2018-07-07T13:31:15.720Z,3.93
2018-07-07T13:33:18.322Z,4.47
2018-07-07T13:35:20.877Z,4.20
2018-07-07T13:37:23.446Z,4.13
2018-07-07T13:39:26.108Z,5.00
2018-07-07T13:41:28.660Z,4.17
2018-07-07T13:43:31.253Z,4.30
2018-07-07T13:45:33.825Z,4.60
2018-07-07T13:47:36.379Z,4.03
2018-07-07T13:49:38.972Z,4.80
2018-07-07T13:51:41.560Z,4.30
2018-07-07T13:53:44.134Z,4.83
2018-07-07T13:55:46.709Z,5.03
2018-07-07T13:57:49.258Z,4.73
2018-07-07T13:59:51.838Z,4.60
2018-07-07T14:01:54.408Z,4.53
2018-07-07T14:03:57.000Z,4.23
2018-07-07T14:05:59.549Z,4.73
2018-07-07T14:08:02.137Z,4.93
2018-07-07T14:10:04.693Z,4.77
2018-07-07T14:12:07.285Z,4.50
2018-07-07T14:14:09.873Z,4.63
2018-07-07T14:16:12.423Z,4.93
2018-07-07T14:18:14.972Z,3.67
2018-07-07T14:20:17.544Z,4.40
2018-07-07T14:22:20.167Z,5.60
2018-07-07T14:24:22.725Z,4.17
2018-07-07T14:26:25.275Z,4.70
2018-07-07T14:28:27.829Z,4.27
2018-07-07T14:30:30.398Z,4.50
2018-07-07T14:32:33.022Z,4.13
2018-07-07T14:34:35.613Z,4.37
2018-07-07T14:36:38.169Z,3.40
2018-07-07T14:38:40.737Z,4.07
2018-07-07T14:40:43.348Z,4.23
2018-07-07T14:42:45.864Z,4.17
2018-07-07T14:44:48.426Z,3.97
2018-07-07T14:46:51.736Z,4.40
2018-07-07T14:48:54.290Z,4.00
2018-07-07T14:50:56.853Z,4.23
2018-07-07T14:52:59.481Z,3.87
2018-07-07T14:55:02.153Z,4.00
2018-07-07T14:57:04.721Z,3.50
2018-07-07T14:59:07.293Z,4.30
2018-07-07T15:01:09.869Z,4.70
2018-07-07T15:03:12.453Z,5.17
2018-07-07T15:05:15.017Z,3.70
2018-07-07T15:07:17.570Z,4.50
2018-07-07T15:09:20.129Z,4.50
2018-07-07T15:11:22.740Z,3.80
2018-07-07T15:13:25.305Z,4.60
2018-07-07T15:15:27.871Z,4.20
2018-07-07T15:17:30.460Z,4.20
2018-07-07T15:19:33.033Z,3.77
2018-07-07T15:21:37.158Z,3.50
2018-07-07T15:23:39.705Z,3.50
2018-07-07T15:25:42.260Z,3.90
2018-07-07T15:27:44.854Z,4.00
2018-07-07T15:29:47.453Z,4.30
2018-07-07T15:31:50.010Z,3.47
2018-07-07T15:33:52.576Z,3.60
2018-07-07T15:35:55.133Z,4.37
2018-07-07T15:37:57.724Z,4.27
2018-07-07T15:40:00.325Z,4.70
2018-07-07T15:42:02.877Z,4.50
2018-07-07T15:44:05.419Z,3.73
2018-07-07T15:46:07.977Z,3.60
2018-07-07T15:48:10.589Z,3.60
2018-07-07T15:50:13.163Z,3.63
2018-07-07T15:52:15.713Z,4.20
2018-07-07T15:54:18.274Z,4.10
2018-07-07T15:56:20.888Z,3.80
2018-07-07T15:58:23.463Z,3.67
2018-07-07T16:00:26.068Z,3.10
2018-07-07T16:02:28.611Z,3.43
2018-07-07T16:04:31.154Z,3.33
2018-07-07T16:06:33.724Z,3.20
2018-07-07T16:08:36.270Z,3.17
2018-07-07T16:10:40.438Z,3.30
2018-07-07T16:12:43.009Z,3.10
2018-07-07T16:14:45.599Z,3.53
2018-07-07T16:16:49.669Z,3.50
2018-07-07T16:18:52.221Z,3.30
2018-07-07T16:20:55.548Z,3.20
2018-07-07T16:22:58.097Z,3.17
2018-07-07T16:25:00.698Z,3.90
2018-07-07T16:27:03.279Z,3.33
2018-07-07T16:29:05.821Z,3.83
2018-07-07T16:31:08.417Z,3.67
2018-07-07T16:33:11.006Z,3.73
2018-07-07T16:35:13.605Z,3.43
2018-07-07T16:37:16.157Z,3.40
2018-07-07T16:39:18.701Z,3.80
2018-07-07T16:41:21.328Z,3.10
2018-07-07T16:43:24.289Z,3.00
2018-07-07T16:45:26.817Z,3.30
2018-07-07T16:47:29.564Z,3.40
2018-07-07T16:49:32.121Z,3.20
2018-07-07T16:51:34.683Z,2.97
2018-07-07T16:53:37.243Z,2.90
2018-07-07T16:55:39.825Z,2.80
2018-07-07T16:57:42.393Z,2.80
2018-07-07T16:59:45.752Z,3.00
2018-07-07T17:01:48.321Z,2.67
2018-07-07T17:03:50.869Z,2.73
2018-07-07T17:05:54.327Z,3.03
2018-07-07T17:07:56.919Z,2.97
2018-07-07T17:09:59.456Z,2.63
2018-07-07T17:12:02.036Z,3.03
2018-07-07T17:14:04.603Z,2.60
2018-07-07T17:16:07.195Z,2.57
2018-07-07T17:18:09.737Z,2.40
2018-07-07T17:20:12.288Z,2.13
2018-07-07T17:22:15.615Z,2.20
2018-07-07T17:24:18.161Z,2.30
2018-07-07T17:26:20.744Z,2.20
2018-07-07T17:28:23.362Z,2.23
2018-07-07T17:30:25.980Z,2.20
2018-07-07T17:32:28.480Z,2.10
2018-07-07T17:34:31.052Z,2.17
2018-07-07T17:36:33.622Z,2.30
2018-07-07T17:38:36.173Z,2.87
2018-07-07T17:40:38.821Z,2.27
2018-07-07T17:42:41.476Z,2.57
2018-07-07T17:44:44.049Z,1.80
2018-07-07T17:46:46.612Z,2.50
2018-07-07T17:48:49.163Z,2.37
2018-07-07T17:50:51.757Z,2.07
2018-07-07T17:52:54.354Z,2.03
2018-07-07T17:54:56.885Z,1.90
2018-07-07T17:56:59.441Z,1.87
2018-07-07T17:59:02.025Z,2.50
2018-07-07T18:01:04.573Z,1.87
2018-07-07T18:03:07.900Z,1.70
2018-07-07T18:05:10.458Z,2.00
2018-07-07T18:07:13.056Z,1.80
2018-07-07T18:09:15.602Z,1.73
2018-07-07T18:11:18.140Z,2.03
2018-07-07T18:13:21.508Z,1.50
2018-07-07T18:15:24.070Z,2.20
2018-07-07T18:17:26.592Z,1.70
2018-07-07T18:19:29.923Z,1.47
2018-07-07T18:21:32.504Z,1.90
2018-07-07T18:23:35.114Z,1.80
2018-07-07T18:25:37.662Z,1.83
2018-07-07T18:27:40.332Z,1.90
2018-07-07T18:29:42.896Z,1.20
2018-07-07T18:31:45.806Z,1.70
2018-07-07T18:33:48.356Z,2.00
2018-07-07T18:35:51.034Z,1.60
2018-07-07T18:37:53.681Z,1.50
2018-07-07T18:39:56.968Z,1.87
2018-07-07T18:41:59.546Z,1.97
2018-07-07T18:44:02.097Z,1.80
2018-07-07T18:46:05.447Z,1.40
2018-07-07T18:48:08.114Z,1.67
2018-07-07T18:50:10.665Z,1.80
2018-07-07T18:52:13.241Z,1.50
2018-07-07T18:54:15.867Z,1.80
2018-07-07T18:56:18.404Z,1.40
2018-07-07T18:58:20.961Z,1.40
2018-07-07T19:00:23.543Z,1.93
2018-07-07T19:02:26.102Z,1.30
2018-07-07T19:04:28.688Z,1.47
2018-07-07T19:06:31.249Z,1.63
2018-07-07T19:08:33.884Z,1.50
2018-07-07T19:10:36.413Z,1.57
2018-07-07T19:12:39.052Z,1.37
2018-07-07T19:14:42.357Z,1.63
2018-07-07T19:16:44.917Z,1.40
2018-07-07T19:18:47.485Z,1.37
2018-07-07T19:20:50.825Z,1.40
2018-07-07T19:22:59.273Z,1.60
2018-07-07T19:25:22.613Z,1.50
2018-07-07T19:27:25.181Z,1.40
2018-07-07T19:29:27.733Z,1.50
2018-07-07T19:31:31.113Z,1.60
2018-07-07T19:33:39.477Z,1.40
2018-07-07T19:35:59.738Z,1.40
2018-07-07T19:38:02.316Z,1.70
2018-07-07T19:40:04.857Z,1.57
2018-07-07T19:42:07.406Z,1.10
2018-07-07T19:44:10.736Z,1.40
2018-07-07T19:46:13.294Z,1.93
2018-07-07T19:48:15.878Z,1.70
2018-07-07T19:50:18.429Z,1.50
2018-07-07T19:52:21.192Z,1.97
2018-07-07T19:54:24.513Z,1.40
2018-07-07T19:56:27.053Z,1.70
2018-07-07T19:58:30.384Z,1.50
2018-07-07T20:00:32.967Z,1.30
2018-07-07T20:02:35.645Z,1.27
2018-07-07T20:04:38.213Z,1.67
2018-07-07T20:06:40.789Z,1.80
2018-07-07T20:08:43.399Z,1.20
2018-07-07T20:10:45.925Z,1.40
2018-07-07T20:12:48.508Z,1.70
2018-07-07T20:14:51.069Z,1.30
2018-07-07T20:16:53.657Z,1.57
2018-07-07T20:18:56.225Z,1.43
2018-07-07T20:20:58.800Z,2.00
2018-07-07T20:23:01.341Z,1.50
2018-07-07T20:25:03.913Z,1.53
2018-07-07T20:27:06.464Z,1.53
2018-07-07T20:29:09.812Z,1.60
2018-07-07T20:31:12.392Z,1.93
2018-07-07T20:33:14.957Z,1.70
2018-07-07T20:35:17.537Z,1.77
2018-07-07T20:37:20.105Z,2.10
2018-07-07T20:39:22.648Z,1.63
2018-07-07T20:41:25.222Z,1.60
2018-07-07T20:43:27.777Z,1.77
2018-07-07T20:45:31.112Z,2.17
2018-07-07T20:47:33.745Z,1.40
2018-07-07T20:49:36.365Z,1.53
2018-07-07T20:51:38.938Z,1.87
2018-07-07T20:53:41.485Z,2.10
2018-07-07T20:55:44.038Z,1.93
2018-07-07T20:57:47.389Z,2.03
2018-07-07T20:59:49.945Z,2.10
2018-07-07T21:01:53.386Z,1.40
2018-07-07T21:03:55.954Z,1.73
2018-07-07T21:05:59.998Z,2.43
2018-07-07T21:08:02.612Z,1.80
2018-07-07T21:10:05.134Z,1.80
2018-07-07T21:12:07.748Z,1.70
2018-07-07T21:14:10.397Z,1.80
2018-07-07T21:16:12.961Z,1.70
2018-07-07T21:18:15.542Z,2.27
2018-07-07T21:20:18.833Z,1.97
2018-07-07T21:22:21.396Z,1.73
2018-07-07T21:24:23.937Z,2.07
2018-07-07T21:26:27.269Z,2.00
2018-07-07T21:28:29.812Z,1.80
2018-07-07T21:30:33.189Z,2.10
2018-07-07T21:32:35.865Z,2.47
2018-07-07T21:34:38.438Z,2.13
2018-07-07T21:36:40.996Z,2.17
2018-07-07T21:38:43.551Z,2.60
2018-07-07T21:40:46.097Z,1.97
2018-07-07T21:42:48.721Z,1.90
2018-07-07T21:44:51.265Z,2.03
2018-07-07T21:46:53.851Z,2.30
2018-07-07T21:48:56.393Z,2.20
2018-07-07T21:51:00.513Z,2.33
2018-07-07T21:53:03.081Z,2.33
2018-07-07T21:55:05.647Z,2.20
2018-07-07T21:57:08.210Z,1.57
2018-07-07T21:59:10.862Z,2.53
2018-07-07T22:01:13.515Z,2.60
2018-07-07T22:03:30.946Z,2.50
2018-07-07T22:05:33.533Z,2.17
2018-07-07T22:07:36.182Z,2.30
2018-07-07T22:09:38.727Z,2.27
2018-07-07T22:11:41.464Z,2.70
2018-07-07T22:13:45.732Z,2.70
2018-07-07T22:15:48.334Z,2.40
2018-07-07T22:17:51.019Z,2.50
2018-07-07T22:19:53.569Z,2.13
2018-07-07T22:21:56.124Z,1.97
2018-07-07T22:23:58.685Z,2.60
2018-07-07T22:26:01.269Z,2.17
2018-07-07T22:28:03.886Z,2.27
2018-07-07T22:30:06.440Z,2.60
2018-07-07T22:32:08.981Z,2.03
2018-07-07T22:34:13.106Z,2.10
2018-07-07T22:36:15.668Z,2.10
2018-07-07T22:38:18.236Z,2.33
2018-07-07T22:40:20.801Z,1.77
2018-07-07T22:42:23.400Z,2.17
2018-07-07T22:44:26.018Z,2.20
2018-07-07T22:46:28.546Z,2.30
2018-07-07T22:48:31.084Z,2.00
2018-07-07T22:50:33.653Z,3.07
2018-07-07T22:52:36.965Z,1.97
2018-07-07T22:54:39.567Z,1.87
2018-07-07T22:56:42.135Z,2.40
2018-07-07T22:58:44.715Z,2.40
2018-07-07T23:00:47.323Z,2.23
2018-07-07T23:02:50.695Z,2.53
2018-07-07T23:04:53.386Z,2.30
2018-07-07T23:06:55.901Z,2.07
2018-07-07T23:08:58.497Z,2.20
2018-07-07T23:11:01.082Z,2.03
2018-07-07T23:13:03.629Z,2.30
2018-07-07T23:15:06.221Z,2.00
2018-07-07T23:17:08.788Z,2.47
2018-07-07T23:19:11.405Z,2.63
2018-07-07T23:21:14.037Z,2.90
2018-07-07T23:23:17.410Z,2.40
2018-07-07T23:25:20.006Z,2.20
2018-07-07T23:27:22.585Z,2.07
2018-07-07T23:29:25.157Z,2.30
2018-07-07T23:31:27.722Z,2.40
2018-07-07T23:33:30.280Z,2.40
2018-07-07T23:35:32.847Z,2.97
2018-07-07T23:37:35.450Z,2.70
2018-07-07T23:39:38.052Z,2.53
2018-07-07T23:41:40.557Z,2.57
2018-07-07T23:43:43.148Z,2.47
2018-07-07T23:45:46.554Z,2.50
2018-07-07T23:47:49.109Z,3.03
2018-07-07T23:49:51.679Z,2.70
2018-07-07T23:51:54.229Z,2.33
2018-07-07T23:53:57.547Z,2.37
2018-07-07T23:56:00.137Z,2.20
2018-07-07T23:58:02.753Z,2.50
